createdAt,value
2023-03-29T00:00:08.114Z,1.00
2023-03-29T00:02:39.122Z,1.00
2023-03-29T00:05:07.341Z,1.00
2023-03-29T00:07:34.547Z,1.00
2023-03-29T00:10:04.590Z,1.00
2023-03-29T00:12:32.143Z,1.00
2023-03-29T00:14:59.601Z,1.00
2023-03-29T00:17:26.634Z,1.00
2023-03-29T00:19:53.602Z,1.00
2023-03-29T00:22:21.333Z,1.00
2023-03-29T00:29:44.014Z,1.00
2023-03-29T00:32:11.148Z,1.00
2023-03-29T00:34:38.154Z,1.00
2023-03-29T00:37:09.491Z,1.00
2023-03-29T00:39:37.182Z,1.00
2023-03-29T00:45:13.333Z,1.00
2023-03-29T00:48:02.128Z,1.00
2023-03-29T00:50:39.912Z,1.00
2023-03-29T00:53:12.337Z,1.00
2023-03-29T00:56:24.068Z,1.00
2023-03-29T00:59:13.276Z,1.00
2023-03-29T01:02:01.965Z,1.00
2023-03-29T01:04:45.397Z,1.00
2023-03-29T01:07:41.766Z,1.00
2023-03-29T01:10:29.201Z,1.00
2023-03-29T01:13:07.545Z,1.00
2023-03-29T01:15:35.598Z,1.00
2023-03-29T01:21:10.036Z,99.90
2023-03-29T01:24:30.592Z,99.90
2023-03-29T01:27:51.543Z,99.90
2023-03-29T01:30:40.329Z,99.90
2023-03-29T01:33:26.240Z,99.90
2023-03-29T01:36:08.046Z,99.90
2023-03-29T01:38:56.602Z,99.90
2023-03-29T01:42:10.359Z,99.90
2023-03-29T01:44:57.473Z,99.90
2023-03-29T01:47:43.691Z,99.90
2023-03-29T01:50:35.356Z,99.90
2023-03-29T01:53:20.113Z,99.90
2023-03-29T01:55:57.253Z,99.90
2023-03-29T01:58:34.013Z,1.00
2023-03-29T02:01:09.771Z,1.00
2023-03-29T02:03:42.754Z,1.00
2023-03-29T02:06:13.234Z,1.00
2023-03-29T02:08:42.483Z,1.00
2023-03-29T02:11:09.562Z,1.00
2023-03-29T02:16:13.466Z,1.00
2023-03-29T02:18:45.686Z,1.00
2023-03-29T02:21:25.404Z,1.00
2023-03-29T02:23:55.764Z,1.00
2023-03-29T02:26:24.146Z,1.00
2023-03-29T02:31:46.302Z,97.00
2023-03-29T02:34:30.367Z,99.90
2023-03-29T02:37:06.586Z,99.90
2023-03-29T02:39:35.783Z,99.90
2023-03-29T02:42:06.143Z,99.90
2023-03-29T02:44:40.590Z,99.90
2023-03-29T02:47:32.467Z,99.90
2023-03-29T02:50:00.787Z,99.90
2023-03-29T02:52:35.757Z,99.90
2023-03-29T02:55:08.664Z,99.90
2023-03-29T03:00:09.808Z,99.90
2023-03-29T03:02:37.880Z,99.90
2023-03-29T03:05:09.083Z,99.90
2023-03-29T03:10:05.387Z,99.90
2023-03-29T03:12:32.451Z,99.90
2023-03-29T03:14:59.574Z,99.90
2023-03-29T03:22:21.598Z,99.90
2023-03-29T03:27:18.069Z,99.90
2023-03-29T03:29:45.114Z,99.90
2023-03-29T03:32:35.733Z,99.90
2023-03-29T03:35:38.707Z,99.90
2023-03-29T03:38:07.329Z,99.90
2023-03-29T03:40:34.748Z,99.90
2023-03-29T03:43:01.888Z,99.90
2023-03-29T03:48:07.776Z,99.90
2023-03-29T03:50:55.781Z,99.90
2023-03-29T03:53:27.147Z,99.90
2023-03-29T04:04:24.050Z,99.90
2023-03-29T04:09:59.336Z,99.90
2023-03-29T04:12:45.105Z,99.90
2023-03-29T04:22:54.287Z,99.90
2023-03-29T04:25:23.204Z,99.90
2023-03-29T04:27:59.233Z,99.90
2023-03-29T04:33:33.798Z,99.90
2023-03-29T04:36:01.636Z,99.90
2023-03-29T04:38:30.919Z,99.90
2023-03-29T04:41:01.081Z,99.90
2023-03-29T04:43:41.604Z,99.90
2023-03-29T04:49:07.348Z,99.90
2023-03-29T04:51:38.044Z,99.90
2023-03-29T04:54:05.747Z,99.90
2023-03-29T04:56:45.526Z,99.90
2023-03-29T05:02:02.969Z,99.90
2023-03-29T05:04:30.916Z,99.90
2023-03-29T05:09:35.674Z,99.90
2023-03-29T05:14:44.764Z,99.90
2023-03-29T05:17:11.917Z,99.90
2023-03-29T05:22:08.805Z,99.90
2023-03-29T05:24:36.528Z,99.90
2023-03-29T05:27:17.189Z,99.90
2023-03-29T05:32:28.016Z,99.90
2023-03-29T05:37:22.990Z,99.90
2023-03-29T05:42:40.028Z,99.90
2023-03-29T05:45:11.322Z,99.90
2023-03-29T05:50:10.207Z,99.90
2023-03-29T05:52:38.649Z,99.90
2023-03-29T05:55:07.280Z,99.90
2023-03-29T05:57:38.278Z,99.90
2023-03-29T06:00:27.631Z,99.90
2023-03-29T06:03:19.863Z,99.90
2023-03-29T06:05:56.157Z,99.90
2023-03-29T06:08:23.392Z,99.90
2023-03-29T06:11:06.523Z,99.90
2023-03-29T06:13:53.802Z,99.90
2023-03-29T06:28:40.604Z,99.90
2023-03-29T06:31:09.979Z,99.90
2023-03-29T06:33:40.097Z,99.90
2023-03-29T06:39:03.830Z,99.90
2023-03-29T06:41:56.897Z,99.90
2023-03-29T06:44:39.704Z,99.90
2023-03-29T06:47:13.996Z,99.90
2023-03-29T06:49:41.073Z,99.90
2023-03-29T06:52:27.007Z,99.90
2023-03-29T06:54:54.265Z,99.90
2023-03-29T06:57:24.115Z,99.90
2023-03-29T07:02:27.131Z,99.90
2023-03-29T07:04:57.154Z,99.90
2023-03-29T07:07:43.756Z,99.90
2023-03-29T07:10:27.962Z,99.90
2023-03-29T07:13:15.727Z,99.90
2023-03-29T07:15:44.872Z,99.90
2023-03-29T07:20:48.296Z,99.90
2023-03-29T07:23:15.473Z,99.90
2023-03-29T07:28:10.987Z,99.90
2023-03-29T07:33:14.327Z,99.90
2023-03-29T07:35:53.617Z,99.90
2023-03-29T07:40:55.003Z,99.90
2023-03-29T07:46:06.717Z,99.90
2023-03-29T07:51:07.481Z,99.90
2023-03-29T07:56:38.484Z,99.90
2023-03-29T07:59:18.722Z,99.90
2023-03-29T08:03:58.579Z,99.90
2023-03-29T08:11:43.739Z,99.90
2023-03-29T08:17:14.516Z,99.90
2023-03-29T08:19:51.248Z,99.90
2023-03-29T08:22:24.625Z,99.90
2023-03-29T08:25:15.330Z,99.90
2023-03-29T08:27:46.524Z,99.90
2023-03-29T08:30:19.246Z,99.90
2023-03-29T08:32:49.907Z,99.90
2023-03-29T08:35:19.642Z,99.90
2023-03-29T08:38:04.402Z,99.90
2023-03-29T08:40:31.676Z,1.00
2023-03-29T08:43:52.843Z,20.30
2023-03-29T08:47:02.302Z,99.90
2023-03-29T08:49:40.468Z,99.90
2023-03-29T08:52:38.440Z,99.90
2023-03-29T08:55:43.393Z,99.90
2023-03-29T08:58:44.127Z,99.90
2023-03-29T09:01:11.787Z,99.90
2023-03-29T09:04:31.577Z,99.90
2023-03-29T09:07:11.365Z,99.90
2023-03-29T09:09:43.560Z,56.70
2023-03-29T09:13:22.373Z,93.00
2023-03-29T09:16:11.368Z,1.00
2023-03-29T09:19:08.029Z,1.00
2023-03-29T09:22:24.100Z,1.00
2023-03-29T09:25:11.618Z,1.00
2023-03-29T09:28:06.322Z,1.00
2023-03-29T09:31:16.658Z,1.00
2023-03-29T09:33:59.549Z,99.90
2023-03-29T09:36:56.491Z,99.90
2023-03-29T09:39:28.281Z,99.90
2023-03-29T09:42:09.064Z,99.90
2023-03-29T09:44:47.508Z,99.90
2023-03-29T09:47:31.522Z,99.90
2023-03-29T09:50:19.832Z,99.90
2023-03-29T09:52:57.259Z,22.00
2023-03-29T09:55:31.303Z,1.00
2023-03-29T09:58:24.906Z,1.00
2023-03-29T10:00:59.700Z,49.20
2023-03-29T10:03:34.712Z,1.00
2023-03-29T10:06:11.223Z,1.00
2023-03-29T10:09:01.265Z,1.00
2023-03-29T10:11:38.320Z,17.10
2023-03-29T10:14:16.739Z,1.00
2023-03-29T10:16:48.757Z,1.00
2023-03-29T10:19:34.544Z,1.00
2023-03-29T10:22:07.623Z,1.00
2023-03-29T10:27:07.762Z,39.20
2023-03-29T10:29:43.356Z,1.00
2023-03-29T10:32:25.498Z,1.00
2023-03-29T10:34:53.586Z,1.00
2023-03-29T10:37:23.267Z,1.00
2023-03-29T10:39:51.827Z,1.00
2023-03-29T10:42:23.625Z,1.00
2023-03-29T10:44:58.816Z,1.00
2023-03-29T10:47:34.189Z,1.00
2023-03-29T10:52:33.704Z,99.90
2023-03-29T10:55:00.834Z,1.00
2023-03-29T10:57:59.242Z,99.90
2023-03-29T11:00:37.282Z,21.90
2023-03-29T11:03:43.182Z,99.90
2023-03-29T11:06:32.402Z,93.70
2023-03-29T11:09:12.850Z,99.90
2023-03-29T11:12:15.618Z,1.00
2023-03-29T11:15:32.991Z,1.00
2023-03-29T11:18:22.115Z,1.00
2023-03-29T11:21:30.224Z,1.00
2023-03-29T11:24:49.254Z,1.00
2023-03-29T11:28:14.767Z,1.00
2023-03-29T11:31:24.831Z,1.00
2023-03-29T11:34:35.026Z,1.00
2023-03-29T11:37:42.114Z,1.00
2023-03-29T11:40:49.580Z,1.00
2023-03-29T11:43:54.977Z,1.00
2023-03-29T11:46:33.829Z,1.00
2023-03-29T11:49:26.271Z,1.00
2023-03-29T11:52:24.299Z,89.10
2023-03-29T11:55:09.939Z,21.30
2023-03-29T11:57:48.307Z,99.90
2023-03-29T12:00:29.635Z,1.00
2023-03-29T12:03:40.410Z,27.60
2023-03-29T12:06:42.219Z,1.00
2023-03-29T12:09:49.919Z,1.00
2023-03-29T12:12:42.204Z,1.00
2023-03-29T12:15:24.807Z,74.10
2023-03-29T12:18:37.033Z,99.90
2023-03-29T12:21:14.501Z,99.90
2023-03-29T12:23:44.177Z,99.90
2023-03-29T12:26:52.439Z,53.20
2023-03-29T12:30:23.863Z,99.90
2023-03-29T12:33:41.737Z,36.10
2023-03-29T12:37:03.820Z,99.90
2023-03-29T12:39:51.466Z,40.00
2023-03-29T12:43:07.191Z,68.20
2023-03-29T12:46:26.774Z,28.00
2023-03-29T12:48:58.299Z,92.10
2023-03-29T12:51:34.602Z,99.90
2023-03-29T12:54:28.178Z,1.00
2023-03-29T12:57:18.575Z,1.00
2023-03-29T12:59:49.284Z,99.90
2023-03-29T13:05:01.036Z,71.20
2023-03-29T13:07:45.452Z,82.60
2023-03-29T13:10:54.803Z,99.90
2023-03-29T13:13:34.064Z,19.40
2023-03-29T13:16:18.786Z,99.90
2023-03-29T13:19:35.803Z,75.60
2023-03-29T13:22:53.877Z,45.70
2023-03-29T13:26:23.195Z,16.40
2023-03-29T13:29:52.166Z,1.00
2023-03-29T13:32:49.027Z,1.00
2023-03-29T13:35:27.450Z,1.00
2023-03-29T13:38:23.053Z,1.00
2023-03-29T13:40:53.020Z,1.00
2023-03-29T13:43:19.821Z,1.00
2023-03-29T13:46:18.125Z,1.00
2023-03-29T13:49:06.717Z,1.00
2023-03-29T13:52:06.500Z,1.00
2023-03-29T13:55:12.037Z,1.00
2023-03-29T13:57:45.894Z,1.00
2023-03-29T14:00:22.923Z,1.00
2023-03-29T14:03:05.428Z,1.00
2023-03-29T14:05:40.189Z,1.00
2023-03-29T14:08:37.583Z,1.00
2023-03-29T14:11:08.392Z,1.00
2023-03-29T14:13:35.581Z,1.00
2023-03-29T14:16:10.522Z,1.00
2023-03-29T14:18:41.243Z,1.00
2023-03-29T14:21:13.064Z,1.00
2023-03-29T14:23:46.042Z,1.00
2023-03-29T14:26:24.180Z,1.00
2023-03-29T14:28:58.068Z,1.00
2023-03-29T14:31:35.703Z,1.00
2023-03-29T14:34:11.827Z,1.00
2023-03-29T14:36:39.799Z,1.00
2023-03-29T14:39:22.996Z,1.00
2023-03-29T14:41:57.024Z,1.00
2023-03-29T14:44:31.725Z,1.00
2023-03-29T14:47:01.414Z,1.00
2023-03-29T14:51:57.720Z,1.00
2023-03-29T14:54:31.739Z,1.00
2023-03-29T14:56:59.933Z,1.00
2023-03-29T14:59:41.777Z,1.00
2023-03-29T15:02:32.124Z,1.00
2023-03-29T15:05:25.649Z,1.00
2023-03-29T15:07:55.888Z,1.00
2023-03-29T15:10:23.685Z,1.00
2023-03-29T15:12:52.664Z,1.00
2023-03-29T15:15:21.190Z,1.00
2023-03-29T15:17:52.203Z,1.00
2023-03-29T15:20:27.596Z,1.00
2023-03-29T15:23:20.638Z,1.00
2023-03-29T15:26:14.049Z,1.00
2023-03-29T15:29:02.826Z,1.00
2023-03-29T15:31:37.905Z,99.90
2023-03-29T15:34:25.741Z,1.00
2023-03-29T15:36:53.882Z,1.00
2023-03-29T15:39:21.314Z,1.00
2023-03-29T15:41:53.118Z,99.90
2023-03-29T15:44:39.267Z,99.90
2023-03-29T15:47:13.767Z,99.90
2023-03-29T15:49:41.037Z,99.90
2023-03-29T15:52:08.482Z,99.90
2023-03-29T15:54:37.029Z,99.90
2023-03-29T15:57:10.784Z,99.90
2023-03-29T15:59:37.878Z,99.90
2023-03-29T16:02:05.514Z,99.90
2023-03-29T16:04:32.546Z,99.90
2023-03-29T16:06:59.502Z,99.90
2023-03-29T16:09:27.319Z,99.90
2023-03-29T16:11:54.584Z,99.90
2023-03-29T16:14:29.712Z,99.90
2023-03-29T16:16:59.218Z,1.00
2023-03-29T16:19:29.069Z,1.00
2023-03-29T16:21:57.239Z,1.00
2023-03-29T16:24:28.968Z,1.00
2023-03-29T16:26:58.354Z,1.00
2023-03-29T16:29:26.219Z,1.00
2023-03-29T16:34:22.785Z,99.90
2023-03-29T16:36:50.589Z,99.90
2023-03-29T16:41:48.740Z,99.90
2023-03-29T16:44:26.254Z,99.90
2023-03-29T16:46:58.248Z,99.90
2023-03-29T16:49:25.289Z,99.90
2023-03-29T16:51:52.313Z,99.90
2023-03-29T16:54:19.354Z,56.20
2023-03-29T16:56:46.816Z,99.90
2023-03-29T17:04:09.876Z,1.00
2023-03-29T17:06:36.930Z,1.00
2023-03-29T17:14:00.057Z,99.90
2023-03-29T17:16:28.853Z,99.90
2023-03-29T17:19:00.189Z,99.90
2023-03-29T17:21:29.061Z,99.90
2023-03-29T17:23:56.090Z,99.90
2023-03-29T17:26:23.130Z,99.90
2023-03-29T17:28:50.399Z,99.90
2023-03-29T17:31:19.427Z,99.90
2023-03-29T17:41:10.148Z,1.00
2023-03-29T17:46:05.016Z,1.00
2023-03-29T17:48:32.812Z,1.00
2023-03-29T17:50:59.940Z,1.00
2023-03-29T17:53:27.251Z,1.00
2023-03-29T17:55:54.244Z,1.00
2023-03-29T18:00:48.962Z,1.00
2023-03-29T18:05:44.731Z,1.00
2023-03-29T18:08:13.403Z,1.00
2023-03-29T18:10:40.723Z,1.00
2023-03-29T18:18:05.944Z,1.00
2023-03-29T18:20:33.257Z,1.00
2023-03-29T18:25:27.900Z,24.60
2023-03-29T18:27:54.965Z,1.00
2023-03-29T18:32:50.000Z,1.00
2023-03-29T18:35:17.072Z,1.00
2023-03-29T18:37:44.052Z,1.00
2023-03-29T18:40:11.871Z,36.90
2023-03-29T18:50:02.762Z,99.90
2023-03-29T18:52:29.851Z,99.90
2023-03-29T18:57:24.538Z,99.90
2023-03-29T18:59:51.702Z,99.90
2023-03-29T19:04:46.398Z,99.90
2023-03-29T19:09:41.535Z,99.90
2023-03-29T19:12:08.910Z,99.90
2023-03-29T19:14:36.456Z,99.90
2023-03-29T19:22:00.524Z,99.90
2023-03-29T19:24:27.990Z,99.90
2023-03-29T19:29:23.916Z,99.90
2023-03-29T19:31:51.809Z,99.90
2023-03-29T19:34:23.645Z,99.90
2023-03-29T19:36:53.249Z,99.90
2023-03-29T19:39:20.722Z,99.90
2023-03-29T19:41:49.024Z,99.90
2023-03-29T19:46:43.753Z,99.90
2023-03-29T19:49:13.423Z,99.90
2023-03-29T19:51:44.266Z,99.90
2023-03-29T19:54:17.194Z,99.90
2023-03-29T19:59:14.785Z,1.00
2023-03-29T20:01:43.870Z,1.00
2023-03-29T20:04:11.645Z,99.90
2023-03-29T20:06:38.909Z,99.90
2023-03-29T20:09:06.926Z,99.90
2023-03-29T20:11:33.991Z,99.90
2023-03-29T20:14:01.123Z,18.30
2023-03-29T20:16:29.645Z,21.70
2023-03-29T20:21:24.164Z,23.30
2023-03-29T20:26:18.739Z,99.20
2023-03-29T20:28:45.722Z,99.90
2023-03-29T20:36:09.007Z,99.90
2023-03-29T20:38:36.232Z,99.90
2023-03-29T20:41:05.319Z,99.90
2023-03-29T20:43:37.459Z,99.90
2023-03-29T20:46:14.816Z,99.90
2023-03-29T20:48:45.851Z,99.90
2023-03-29T20:58:41.787Z,99.90
2023-03-29T21:01:12.138Z,99.90
2023-03-29T21:03:39.308Z,99.90
2023-03-29T21:06:06.645Z,99.90
2023-03-29T21:08:33.940Z,99.90
2023-03-29T21:11:01.149Z,99.90
2023-03-29T21:15:55.880Z,99.90
2023-03-29T21:18:23.330Z,99.90
2023-03-29T21:25:45.584Z,99.90
2023-03-29T21:35:36.262Z,99.90
2023-03-29T21:38:03.331Z,99.90
2023-03-29T21:40:30.452Z,99.90
2023-03-29T21:42:57.528Z,99.90
2023-03-29T21:45:24.527Z,99.90
2023-03-29T21:47:51.685Z,99.90
2023-03-29T21:50:18.802Z,99.90
2023-03-29T21:55:13.314Z,99.90
2023-03-29T21:57:40.647Z,99.90
2023-03-29T22:00:11.095Z,99.90
2023-03-29T22:02:39.705Z,99.90
2023-03-29T22:07:38.623Z,99.90
2023-03-29T22:10:12.311Z,99.90
2023-03-29T22:12:41.235Z,99.90
2023-03-29T22:15:13.692Z,99.90
2023-03-29T22:17:42.621Z,99.90
2023-03-29T22:20:13.157Z,99.90
2023-03-29T22:22:46.782Z,99.90
2023-03-29T22:27:44.724Z,99.90
2023-03-29T22:32:41.088Z,99.90
2023-03-29T22:35:09.526Z,99.90
2023-03-29T22:37:44.097Z,99.90
2023-03-29T22:40:13.057Z,99.90
2023-03-29T22:42:40.187Z,99.90
2023-03-29T22:45:08.941Z,99.90
2023-03-29T22:47:35.991Z,99.90
2023-03-29T22:50:03.853Z,99.90
2023-03-29T22:52:30.853Z,99.90
2023-03-29T22:57:25.438Z,99.90
2023-03-29T23:02:20.088Z,99.90
2023-03-29T23:04:47.565Z,99.90
2023-03-29T23:07:14.647Z,99.90
2023-03-29T23:09:44.673Z,99.90
2023-03-29T23:12:11.744Z,99.90
2023-03-29T23:14:42.435Z,99.90
2023-03-29T23:17:10.093Z,99.90
2023-03-29T23:19:38.020Z,99.90
2023-03-29T23:22:04.995Z,99.90
2023-03-29T23:24:32.290Z,99.90
2023-03-29T23:27:00.986Z,99.90
2023-03-29T23:29:28.052Z,99.90
2023-03-29T23:31:56.625Z,99.90
2023-03-29T23:34:23.638Z,99.90
2023-03-29T23:36:50.729Z,99.90
2023-03-29T23:39:18.140Z,99.90
2023-03-29T23:41:45.512Z,99.90
2023-03-29T23:44:12.510Z,99.90
2023-03-29T23:46:40.809Z,99.90
2023-03-29T23:49:09.831Z,99.90
2023-03-29T23:51:38.943Z,99.90
2023-03-29T23:54:06.155Z,99.90
2023-03-29T23:56:33.336Z,99.90
2023-03-29T23:59:01.339Z,99.90
